Repto Solano, Puerto Rico
Current Conditions -  °F | °C
As of 2:56 PM on Thursday 30 Oct 2014 (Local Time) from TJSJ Reporting Station
Scattered Clouds Scattered Clouds  
Wind Chill: 86°   Ceiling: Unl
Heat Index: 97°   Visibility: 10mi
Dew Point: 77°   Wind: 7mph
Humidity: 74%   Direction: 350°N
Pressure: 29.78"   Gusts: NA
Location:  18.2361°N, 66.0369°W
Report Text: TJSJ 301856Z 35006KT 10SM FEW022 SCT036 SCT100 30/25 A2978 RMK AO2 SLP082 VCSH SE-SW-W T03000250
Loading
Personal Weather Stations






























Interactive Weather Map
Tropical Storm Tracking
New forecast layout! Learn more

10-Day Weather Forecast

Advertisements
Track Severe Weather on mobile